Time;durP1;ratioP1;P1;durP2;ratioP2;P2;SDS_P1;SDS_P2;PMS_P1;PMS_P2;Temp;Humidity;BMP_temperature;BMP_pressure;BME280_temperature;BME280_humidity;BME280_pressure;Samples;Min_cycle;Max_cycle;Signal;HPM_P1;HPM_P2
2021/06/21 00:01:57;;;;;;;5.72;1.85;;;20.20;66.70;;;;;;5094750;28;20032;-82
2021/06/21 00:04:22;;;;;;;11.73;1.80;;;20.30;66.60;;;;;;5094091;28;20073;-83
2021/06/21 00:06:48;;;;;;;15.90;2.13;;;20.20;66.40;;;;;;5092781;28;20399;-85
2021/06/21 00:09:13;;;;;;;6.65;1.92;;;20.10;66.40;;;;;;5094254;28;20028;-84
2021/06/21 00:11:39;;;;;;;12.25;2.42;;;20.00;66.50;;;;;;5094177;28;20396;-81
2021/06/21 00:14:05;;;;;;;8.65;1.90;;;20.10;66.50;;;;;;5094239;28;20333;-85
2021/06/21 00:16:31;;;;;;;9.88;1.85;;;20.20;66.00;;;;;;5093838;28;20050;-87
2021/06/21 00:18:56;;;;;;;14.77;2.00;;;20.20;65.90;;;;;;5094323;28;20070;-86
2021/06/21 00:21:22;;;;;;;11.38;2.08;;;20.30;65.90;;;;;;5092751;28;20028;-82
2021/06/21 00:23:48;;;;;;;13.27;2.00;;;20.30;65.60;;;;;;5092518;28;20024;-84
2021/06/21 00:26:14;;;;;;;11.40;2.60;;;20.30;65.80;;;;;;5093713;28;20488;-85
2021/06/21 00:28:39;;;;;;;9.88;2.03;;;20.30;66.00;;;;;;5093853;28;20016;-84
2021/06/21 00:31:05;;;;;;;12.02;2.17;;;20.30;66.10;;;;;;5092339;28;20035;-85
2021/06/21 00:33:30;;;;;;;10.77;1.88;;;20.30;66.00;;;;;;5093685;28;20059;-84
2021/06/21 00:35:56;;;;;;;11.90;2.00;;;20.30;66.00;;;;;;5092198;28;20024;-85
2021/06/21 00:38:22;;;;;;;10.23;1.55;;;20.30;66.00;;;;;;5092222;28;20483;-85
2021/06/21 00:40:47;;;;;;;10.25;1.85;;;20.40;65.70;;;;;;5093440;28;20095;-84
2021/06/21 00:43:13;;;;;;;13.48;2.33;;;20.40;65.20;;;;;;5092278;28;20117;-85
2021/06/21 00:45:39;;;;;;;7.43;2.20;;;20.40;65.10;;;;;;5092239;28;20024;-85
2021/06/21 00:48:05;;;;;;;10.93;2.08;;;20.40;65.20;;;;;;5092013;28;20051;-85
2021/06/21 00:50:30;;;;;;;8.90;1.98;;;20.40;64.90;;;;;;5092286;28;20036;-85
2021/06/21 00:52:59;;;;;;;10.15;2.03;;;20.50;64.30;;;;;;5092125;28;20027;-84
2021/06/21 00:55:26;;;;;;;10.10;2.22;;;20.40;64.00;;;;;;5093318;28;20107;-85
2021/06/21 00:57:52;;;;;;;15.52;2.05;;;20.30;65.00;;;;;;5093715;28;20024;-84
2021/06/21 01:00:25;;;;;;;9.95;1.73;;;20.30;65.20;;;;;;5093682;28;20046;-84
2021/06/21 01:02:51;;;;;;;7.30;1.77;;;20.20;65.60;;;;;;5093246;28;20088;-83
2021/06/21 01:05:23;;;;;;;11.43;2.33;;;20.00;65.70;;;;;;5093293;28;20369;-84
2021/06/21 01:07:50;;;;;;;7.15;1.77;;;20.00;66.10;;;;;;5092125;28;20031;-84
2021/06/21 01:10:18;;;;;;;13.27;2.03;;;19.90;66.60;;;;;;5093175;28;20071;-84
2021/06/21 01:12:46;;;;;;;7.63;1.50;;;19.90;66.90;;;;;;5091727;28;20039;-85
2021/06/21 01:15:13;;;;;;;8.50;1.80;;;19.90;67.00;;;;;;5093284;28;20484;-85
2021/06/21 01:17:59;;;;;;;11.23;2.00;;;19.90;67.30;;;;;;5093185;28;20303;-85
2021/06/21 01:20:54;;;;;;;8.63;2.05;;;20.00;67.40;;;;;;5093455;28;20024;-84
2021/06/21 01:23:53;;;;;;;10.98;2.10;;;19.90;67.40;;;;;;5100622;28;20107;-86
2021/06/21 01:26:26;;;;;;;13.20;1.85;;;19.70;67.70;;;;;;5102549;28;20021;-86
2021/06/21 01:29:31;;;;;;;11.88;2.15;;;19.50;68.60;;;;;;5103827;28;20131;-85
2021/06/21 01:32:06;;;;;;;12.55;2.15;;;19.30;69.80;;;;;;5098744;28;20020;-86
2021/06/21 01:34:33;;;;;;;11.73;1.90;;;19.10;70.10;;;;;;5100378;28;20020;-87
2021/06/21 01:37:01;;;;;;;7.95;2.10;;;19.10;70.60;;;;;;5100845;28;20028;-85
2021/06/21 01:39:30;;;;;;;10.38;2.15;;;19.20;70.40;;;;;;5103688;28;20027;-86
2021/06/21 01:42:02;;;;;;;9.85;2.20;;;19.10;70.40;;;;;;5100834;28;20025;-86
2021/06/21 01:44:32;;;;;;;11.70;2.05;;;19.10;70.80;;;;;;5101601;28;20047;-86
2021/06/21 01:46:59;;;;;;;7.85;1.95;;;19.10;71.50;;;;;;5101345;28;20032;-86
2021/06/21 01:49:29;;;;;;;8.95;1.75;;;19.10;71.20;;;;;;5104641;28;20032;-85
2021/06/21 01:51:58;;;;;;;9.43;2.35;;;19.00;71.50;;;;;;5101883;28;20032;-85
2021/06/21 01:54:26;;;;;;;8.85;1.90;;;18.90;72.20;;;;;;5106304;28;20012;-83
2021/06/21 01:56:54;;;;;;;13.10;1.90;;;18.80;72.40;;;;;;5117110;28;20023;-82
2021/06/21 01:59:20;;;;;;;12.93;2.20;;;18.90;73.10;;;;;;5117702;28;20015;-81
2021/06/21 02:01:47;;;;;;;9.63;1.65;;;18.90;73.00;;;;;;5106690;28;20127;-83
2021/06/21 02:04:14;;;;;;;13.57;2.20;;;18.90;73.20;;;;;;5102553;28;20433;-84
2021/06/21 02:06:41;;;;;;;11.50;1.98;;;18.80;74.00;;;;;;5097660;28;20119;-85
2021/06/21 02:09:08;;;;;;;8.07;1.80;;;18.80;74.50;;;;;;5091493;28;20024;-82
2021/06/21 02:11:34;;;;;;;14.80;2.30;;;18.80;74.80;;;;;;5091545;28;20531;-84
2021/06/21 02:14:03;;;;;;;11.43;2.15;;;18.80;74.90;;;;;;5091607;28;20047;-84
2021/06/21 02:16:29;;;;;;;11.57;2.47;;;18.80;74.80;;;;;;5091595;28;20024;-84
2021/06/21 02:18:55;;;;;;;9.15;1.92;;;18.80;74.40;;;;;;5096059;28;20038;-85
2021/06/21 02:21:22;;;;;;;7.88;2.08;;;18.80;74.50;;;;;;5095970;28;20087;-86
2021/06/21 02:23:50;;;;;;;9.57;2.15;;;18.80;74.60;;;;;;5096685;28;20030;-87
2021/06/21 02:26:19;;;;;;;9.32;1.80;;;18.80;74.60;;;;;;5097690;28;20034;-85
2021/06/21 02:28:45;;;;;;;11.50;2.50;;;18.80;74.30;;;;;;5099211;28;20068;-88
2021/06/21 02:31:11;;;;;;;10.70;2.58;;;18.90;74.20;;;;;;5099898;28;20115;-87
2021/06/21 02:33:36;;;;;;;9.73;2.65;;;18.80;73.80;;;;;;5097777;28;20035;-89
2021/06/21 02:36:03;;;;;;;10.88;1.98;;;18.60;74.30;;;;;;5098388;28;20048;-86
2021/06/21 02:38:29;;;;;;;7.35;2.20;;;18.60;74.90;;;;;;5101464;28;20020;-85
2021/06/21 02:40:55;;;;;;;12.10;2.40;;;18.70;74.80;;;;;;5097795;28;20090;-84
2021/06/21 02:43:20;;;;;;;10.63;2.00;;;18.80;74.80;;;;;;5098822;28;20028;-85
2021/06/21 02:45:46;;;;;;;14.02;2.17;;;18.70;74.20;;;;;;5097437;28;20059;-87
2021/06/21 02:48:12;;;;;;;9.15;1.70;;;18.60;75.20;;;;;;5097557;28;20548;-82
2021/06/21 02:50:42;;;;;;;9.30;1.88;;;18.50;74.40;;;;;;5095030;28;20036;-82
2021/06/21 02:53:21;;;;;;;6.68;1.92;;;18.40;74.90;;;;;;5095044;28;20027;-85
2021/06/21 02:55:58;;;;;;;10.25;2.70;;;18.30;75.90;;;;;;5096224;28;20036;-87
2021/06/21 02:58:38;;;;;;;6.35;2.08;;;18.40;76.10;;;;;;5096679;28;20020;-86
2021/06/21 03:01:06;;;;;;;9.30;1.98;;;18.50;75.80;;;;;;5098551;28;20100;-83
2021/06/21 03:03:36;;;;;;;12.88;2.25;;;18.60;75.50;;;;;;5096222;28;20055;-83
2021/06/21 03:06:02;;;;;;;7.90;2.42;;;18.70;75.10;;;;;;5096241;28;20103;-84
2021/06/21 03:08:29;;;;;;;11.38;1.85;;;18.70;75.20;;;;;;5094478;28;20020;-84
2021/06/21 03:10:57;;;;;;;13.88;2.00;;;18.80;74.90;;;;;;5095739;28;20032;-82
2021/06/21 03:13:23;;;;;;;10.07;2.00;;;18.70;74.10;;;;;;5095103;28;20016;-84
2021/06/21 03:15:50;;;;;;;6.75;1.60;;;18.60;74.00;;;;;;5095202;28;20027;-85
2021/06/21 03:18:17;;;;;;;11.43;2.00;;;18.60;74.00;;;;;;5094427;28;20031;-85
2021/06/21 03:20:43;;;;;;;9.82;1.92;;;18.50;73.90;;;;;;5094722;28;20121;-86
2021/06/21 03:23:09;;;;;;;9.73;1.60;;;18.50;74.20;;;;;;5093792;28;20046;-85
2021/06/21 03:25:36;;;;;;;8.32;1.73;;;18.50;74.00;;;;;;5094266;28;20024;-86
2021/06/21 03:28:11;;;;;;;7.93;1.88;;;18.60;74.00;;;;;;5094604;28;20056;-87
2021/06/21 03:30:41;;;;;;;12.43;2.05;;;18.70;73.70;;;;;;5092295;28;20118;-81
2021/06/21 03:33:07;;;;;;;5.93;1.50;;;18.90;72.70;;;;;;5093340;28;20020;-80
2021/06/21 03:35:33;;;;;;;12.32;1.70;;;19.00;72.00;;;;;;5094675;28;20034;-80
2021/06/21 03:38:08;;;;;;;7.35;1.60;;;19.10;71.20;;;;;;5094634;28;20076;-81
2021/06/21 03:40:34;;;;;;;8.07;1.67;;;19.10;71.00;;;;;;5093204;28;20558;-81
2021/06/21 03:43:00;;;;;;;10.93;2.17;;;19.10;71.20;;;;;;5094342;28;20028;-81
2021/06/21 03:45:25;;;;;;;7.40;1.33;;;19.10;71.10;;;;;;5094440;28;20020;-81
2021/06/21 03:47:51;;;;;;;9.05;1.63;;;19.20;69.80;;;;;;5093180;28;20185;-81
2021/06/21 03:50:16;;;;;;;8.27;1.50;;;19.20;69.50;;;;;;5094099;28;20039;-80
2021/06/21 03:52:42;;;;;;;6.57;1.52;;;19.20;69.60;;;;;;5094227;28;20020;-80
2021/06/21 03:55:09;;;;;;;6.60;1.23;;;19.20;69.40;;;;;;5094249;28;20056;-81
2021/06/21 03:57:40;;;;;;;5.60;1.80;;;19.30;69.40;;;;;;5094388;28;20024;-79
2021/06/21 04:00:13;;;;;;;10.02;2.22;;;19.10;69.30;;;;;;5094139;28;20427;-81
2021/06/21 04:02:38;;;;;;;3.70;1.40;;;19.20;70.00;;;;;;5093882;28;20020;-80
2021/06/21 04:05:05;;;;;;;6.72;1.13;;;19.30;69.90;;;;;;5094075;28;20038;-80
2021/06/21 04:07:31;;;;;;;7.22;1.40;;;19.40;69.30;;;;;;5093877;28;20043;-80
2021/06/21 04:09:57;;;;;;;7.97;2.85;;;19.60;68.50;;;;;;5094641;28;20056;-80
2021/06/21 04:12:25;;;;;;;10.60;1.27;;;19.80;67.70;;;;;;5099179;28;20069;-79
2021/06/21 04:14:51;;;;;;;7.68;1.55;;;19.80;67.30;;;;;;5099393;28;20464;-81
2021/06/21 04:17:17;;;;;;;8.95;1.95;;;19.90;67.80;;;;;;5099620;28;20020;-78
2021/06/21 04:19:43;;;;;;;9.65;1.42;;;20.00;66.30;;;;;;5100292;28;20570;-81
2021/06/21 04:22:08;;;;;;;9.00;1.63;;;20.00;65.20;;;;;;5093034;28;20020;-81
2021/06/21 04:24:34;;;;;;;6.32;1.25;;;19.80;63.90;;;;;;5093632;28;20024;-80
2021/06/21 04:27:00;;;;;;;8.57;1.42;;;19.70;64.40;;;;;;5093860;28;20024;-83
2021/06/21 04:29:25;;;;;;;10.38;1.98;;;19.40;64.80;;;;;;5093536;28;20384;-82
2021/06/21 04:31:51;;;;;;;8.07;1.58;;;19.30;66.60;;;;;;5093605;28;20028;-83
2021/06/21 04:34:18;;;;;;;8.45;1.65;;;19.10;68.10;;;;;;5093587;28;20028;-81
2021/06/21 04:36:43;;;;;;;6.82;1.67;;;18.90;68.10;;;;;;5093843;28;20023;-83
2021/06/21 04:39:09;;;;;;;10.95;2.55;;;18.80;69.70;;;;;;5093846;28;20103;-82
2021/06/21 04:41:34;;;;;;;10.27;2.05;;;18.70;70.20;;;;;;5093580;28;20028;-82
2021/06/21 04:44:00;;;;;;;8.63;2.25;;;18.70;71.00;;;;;;5092451;28;20020;-81
2021/06/21 04:46:29;;;;;;;6.40;1.63;;;18.80;71.40;;;;;;5093575;28;20030;-82
2021/06/21 04:48:55;;;;;;;10.02;1.85;;;18.90;71.50;;;;;;5092468;28;20448;-82
2021/06/21 04:51:22;;;;;;;5.07;1.33;;;19.10;71.50;;;;;;5093388;28;20056;-80
2021/06/21 04:53:48;;;;;;;7.97;1.75;;;19.30;71.20;;;;;;5093335;28;20055;-80
2021/06/21 04:56:15;;;;;;;11.13;1.80;;;19.40;70.70;;;;;;5093611;28;20052;-80
2021/06/21 04:58:41;;;;;;;5.97;1.90;;;19.50;69.40;;;;;;5093811;28;20024;-80
2021/06/21 05:01:07;;;;;;;8.05;1.88;;;19.30;69.30;;;;;;5093476;28;20422;-81
2021/06/21 05:03:37;;;;;;;8.63;1.90;;;19.30;69.70;;;;;;5093416;28;20492;-82
2021/06/21 05:06:08;;;;;;;9.50;2.05;;;19.20;70.50;;;;;;5093594;28;20023;-82
2021/06/21 05:08:34;;;;;;;9.27;1.88;;;19.30;70.60;;;;;;5093835;28;20052;-82
2021/06/21 05:11:00;;;;;;;7.95;1.77;;;19.30;70.40;;;;;;5093133;28;20133;-82
2021/06/21 05:13:26;;;;;;;7.22;1.92;;;19.30;70.40;;;;;;5093185;28;20030;-83
2021/06/21 05:15:51;;;;;;;8.70;1.58;;;19.30;70.70;;;;;;5092951;28;20077;-82
2021/06/21 05:18:17;;;;;;;7.00;1.90;;;19.40;70.10;;;;;;5093089;28;20133;-83
2021/06/21 05:20:42;;;;;;;5.43;1.67;;;19.50;70.70;;;;;;5091817;28;20341;-83
2021/06/21 05:23:08;;;;;;;5.20;1.35;;;19.70;69.50;;;;;;5093238;28;20064;-83
2021/06/21 05:25:34;;;;;;;6.88;1.52;;;19.80;69.10;;;;;;5093332;28;20028;-83
2021/06/21 05:28:01;;;;;;;7.65;1.52;;;19.90;68.90;;;;;;5093315;28;20376;-82
2021/06/21 05:30:27;;;;;;;9.52;1.67;;;19.70;67.70;;;;;;5092391;28;20088;-82
2021/06/21 05:32:52;;;;;;;10.23;1.80;;;19.60;68.50;;;;;;5096296;28;20016;-82
2021/06/21 05:35:20;;;;;;;8.38;1.65;;;19.50;69.40;;;;;;5098405;28;20028;-81
2021/06/21 05:37:46;;;;;;;8.85;1.77;;;19.50;69.00;;;;;;5097091;28;20023;-82
2021/06/21 05:40:13;;;;;;;8.93;1.60;;;19.60;69.10;;;;;;5096899;28;20020;-82
2021/06/21 05:42:38;;;;;;;6.57;1.35;;;19.70;69.20;;;;;;5095793;28;20084;-81
2021/06/21 05:45:04;;;;;;;6.97;1.73;;;19.80;69.00;;;;;;5096693;28;20075;-82
2021/06/21 05:47:30;;;;;;;8.82;1.58;;;19.90;68.60;;;;;;5097598;28;20060;-82
2021/06/21 05:49:55;;;;;;;4.82;1.58;;;20.00;68.20;;;;;;5095485;28;20043;-83
2021/06/21 05:52:21;;;;;;;5.63;1.20;;;19.80;67.30;;;;;;5096897;28;20016;-81
2021/06/21 05:54:47;;;;;;;7.28;2.13;;;19.70;67.80;;;;;;5097504;28;20028;-81
2021/06/21 05:57:12;;;;;;;6.50;1.50;;;19.50;69.20;;;;;;5103450;28;20024;-83
2021/06/21 05:59:38;;;;;;;9.68;1.60;;;19.30;70.30;;;;;;5105749;28;20016;-82
2021/06/21 06:02:04;;;;;;;7.22;1.55;;;19.30;70.70;;;;;;5107921;28;20020;-82
2021/06/21 06:04:29;;;;;;;9.65;1.70;;;19.30;71.00;;;;;;5107425;28;20388;-82
2021/06/21 06:06:55;;;;;;;6.35;1.40;;;19.30;71.00;;;;;;5100236;28;20032;-83
2021/06/21 06:09:21;;;;;;;11.95;2.05;;;19.50;70.70;;;;;;5120636;28;20054;-83
2021/06/21 06:11:48;;;;;;;8.30;1.50;;;19.80;69.50;;;;;;5121641;28;20037;-83
2021/06/21 06:14:14;;;;;;;5.38;1.23;;;20.00;68.30;;;;;;5113173;28;20034;-83
2021/06/21 06:16:40;;;;;;;10.07;2.00;;;20.30;68.10;;;;;;5097938;28;20103;-84
2021/06/21 06:19:06;;;;;;;8.55;1.73;;;20.40;66.80;;;;;;5099596;28;20051;-83
2021/06/21 06:21:31;;;;;;;5.95;1.48;;;20.50;66.30;;;;;;5090692;28;20377;-83
2021/06/21 06:23:58;;;;;;;5.95;1.80;;;20.70;65.80;;;;;;5104406;28;20026;-84
2021/06/21 06:26:24;;;;;;;8.98;1.60;;;20.90;64.90;;;;;;5100540;28;20020;-84
2021/06/21 06:28:50;;;;;;;5.95;1.25;;;21.00;64.60;;;;;;5109006;28;20047;-83
2021/06/21 06:31:15;;;;;;;5.82;1.42;;;21.10;64.60;;;;;;5102457;28;20032;-84
2021/06/21 06:33:41;;;;;;;7.70;1.63;;;21.30;64.00;;;;;;5103987;28;20029;-83
2021/06/21 06:36:07;;;;;;;9.35;2.25;;;21.40;63.80;;;;;;5099937;28;20020;-83
2021/06/21 06:38:33;;;;;;;5.22;1.38;;;21.50;61.50;;;;;;5098779;28;20031;-82
2021/06/21 06:41:01;;;;;;;6.03;1.52;;;21.40;60.70;;;;;;5099026;28;20016;-82
2021/06/21 06:43:26;;;;;;;6.05;1.42;;;21.40;60.90;;;;;;5098245;28;20055;-82
2021/06/21 06:45:52;;;;;;;5.70;1.45;;;21.30;60.60;;;;;;5098956;28;20028;-83
2021/06/21 06:48:18;;;;;;;7.95;1.48;;;21.30;61.00;;;;;;5098697;28;20075;-86
2021/06/21 06:50:43;;;;;;;7.65;1.55;;;21.40;60.80;;;;;;5099520;28;20408;-85
2021/06/21 06:53:09;;;;;;;7.65;1.42;;;21.40;61.40;;;;;;5102132;28;20021;-84
2021/06/21 06:58:19;;;;;;;4.25;1.05;;;21.60;60.70;;;;;;5100443;28;20111;-84
2021/06/21 07:00:44;;;;;;;11.30;2.08;;;21.60;60.40;;;;;;5098610;28;20052;-83
2021/06/21 07:03:11;;;;;;;6.00;1.40;;;21.60;60.00;;;;;;5097831;28;20024;-83
2021/06/21 07:05:36;;;;;;;9.45;1.88;;;21.70;59.80;;;;;;5099862;28;20012;-84
2021/06/21 07:08:03;;;;;;;5.57;1.33;;;21.80;60.40;;;;;;5097423;28;20024;-82
2021/06/21 07:10:29;;;;;;;4.88;1.73;;;21.90;61.10;;;;;;5096149;28;20128;-83
2021/06/21 07:12:56;;;;;;;6.38;1.45;;;22.00;61.30;;;;;;5103447;28;20026;-82
2021/06/21 07:15:22;;;;;;;4.75;1.20;;;22.10;61.70;;;;;;5099251;28;20464;-84
2021/06/21 07:17:47;;;;;;;6.57;1.45;;;22.30;60.90;;;;;;5097033;28;20020;-82
2021/06/21 07:20:13;;;;;;;7.85;1.42;;;22.50;60.30;;;;;;5097736;28;20055;-84
2021/06/21 07:22:39;;;;;;;6.57;1.08;;;22.80;59.70;;;;;;5099768;28;20069;-84
2021/06/21 07:25:06;;;;;;;2.42;1.00;;;23.00;55.70;;;;;;5096976;28;20032;-85
2021/06/21 07:30:07;;;;;;;;;;;22.50;54.20;;;;;;4815860;22;20755;-84
2021/06/21 07:32:33;;;;;;;8.73;1.50;;;22.10;54.50;;;;;;5050371;28;19956;-82
2021/06/21 07:34:58;;;;;;;7.07;1.42;;;22.00;55.60;;;;;;5034837;28;20103;-83
2021/06/21 07:37:24;;;;;;;5.63;1.30;;;22.10;55.40;;;;;;5034930;28;20123;-83
2021/06/21 07:39:49;;;;;;;5.35;1.55;;;22.30;54.90;;;;;;5050758;28;20037;-84
2021/06/21 08:00:33;;;;;;;6.15;1.10;;;22.70;50.60;;;;;;5728675;22;20008;-84
2021/06/21 08:02:59;;;;;;;3.40;0.85;;;22.70;50.10;;;;;;5053503;28;20048;-83
2021/06/21 08:05:26;;;;;;;5.25;1.20;;;22.70;49.70;;;;;;5054150;28;20028;-83
2021/06/21 08:07:52;;;;;;;3.35;1.10;;;22.80;50.60;;;;;;5705962;22;20048;-84
2021/06/21 08:10:18;;;;;;;5.30;1.10;;;22.90;50.00;;;;;;5064038;28;20105;-84
2021/06/21 08:12:44;;;;;;;5.53;1.00;;;22.80;50.70;;;;;;5061732;28;20106;-84
2021/06/21 08:15:11;;;;;;;1.45;0.75;;;22.90;51.30;;;;;;5063347;28;20083;-84
2021/06/21 08:17:37;;;;;;;5.57;1.23;;;23.00;50.60;;;;;;5060886;28;20448;-84
2021/06/21 08:20:05;;;;;;;3.33;1.10;;;23.10;50.10;;;;;;5058983;28;20029;-82
2021/06/21 08:22:31;;;;;;;2.28;0.80;;;23.10;48.80;;;;;;5057647;28;20446;-87
2021/06/21 08:24:57;;;;;;;6.90;1.13;;;23.20;46.50;;;;;;5056636;28;20060;-84
2021/06/21 08:27:22;;;;;;;4.88;1.02;;;23.20;45.90;;;;;;5072305;28;20041;-81
2021/06/21 08:29:48;;;;;;;5.10;1.38;;;23.20;44.60;;;;;;5055020;28;20037;-79
2021/06/21 08:32:13;;;;;;;6.68;1.05;;;23.20;47.20;;;;;;5056560;28;20021;-80
2021/06/21 08:34:39;;;;;;;2.95;0.85;;;23.30;47.60;;;;;;5056647;28;20029;-82
2021/06/21 08:37:05;;;;;;;6.50;1.15;;;23.50;45.80;;;;;;5056204;28;20053;-82
2021/06/21 08:39:32;;;;;;;5.38;1.48;;;23.50;44.50;;;;;;5056634;28;20032;-82
2021/06/21 08:41:58;;;;;;;2.42;0.80;;;23.70;42.60;;;;;;5055424;28;20017;-82
2021/06/21 08:44:23;;;;;;;2.13;0.88;;;23.70;41.80;;;;;;5052994;28;20119;-82
2021/06/21 08:46:50;;;;;;;2.78;0.93;;;23.90;43.10;;;;;;5053797;28;20376;-82
2021/06/21 08:49:18;;;;;;;2.42;0.60;;;23.90;43.50;;;;;;5052244;28;20438;-82
2021/06/21 08:51:44;;;;;;;4.30;0.80;;;23.80;43.20;;;;;;5053097;28;20388;-82
2021/06/21 08:54:10;;;;;;;1.20;0.55;;;23.80;41.40;;;;;;5054107;28;20025;-82
2021/06/21 08:56:36;;;;;;;4.00;0.82;;;23.70;41.40;;;;;;5053925;28;20028;-82
2021/06/21 08:59:06;;;;;;;5.82;1.13;;;23.80;40.80;;;;;;5053216;28;20027;-81
2021/06/21 09:01:39;;;;;;;4.30;0.73;;;23.80;41.30;;;;;;5053883;28;20025;-82
2021/06/21 09:04:09;;;;;;;2.17;0.85;;;24.00;41.70;;;;;;5069208;28;20025;-82
2021/06/21 09:06:38;;;;;;;7.30;1.35;;;24.00;42.70;;;;;;5053454;28;20115;-82
2021/06/21 09:09:04;;;;;;;3.30;0.82;;;24.00;45.00;;;;;;5053412;28;20040;-83
2021/06/21 09:11:45;;;;;;;5.22;0.90;;;23.90;44.30;;;;;;5053573;28;20587;-83
2021/06/21 09:14:33;;;;;;;6.70;1.42;;;24.10;42.90;;;;;;5054589;28;20036;-82
2021/06/21 09:17:02;;;;;;;3.92;1.10;;;24.10;43.50;;;;;;5054629;28;20025;-85
2021/06/21 09:19:29;;;;;;;5.28;1.17;;;24.30;44.20;;;;;;5052839;28;20031;-86
2021/06/21 09:21:56;;;;;;;4.20;0.90;;;24.30;43.30;;;;;;5053146;28;20024;-78
2021/06/21 09:24:27;;;;;;;3.47;1.00;;;24.20;42.50;;;;;;5054179;28;20021;-80
2021/06/21 09:26:55;;;;;;;3.70;0.75;;;24.10;43.10;;;;;;5053267;28;20021;-81
2021/06/21 09:29:41;;;;;;;5.65;0.68;;;24.10;43.10;;;;;;5052754;28;20074;-81
2021/06/21 09:32:07;;;;;;;3.97;0.82;;;24.30;42.10;;;;;;5052800;28;20029;-81
2021/06/21 09:34:33;;;;;;;6.70;1.30;;;24.30;43.10;;;;;;5052918;28;20333;-80
2021/06/21 09:37:17;;;;;;;3.65;1.13;;;24.30;43.60;;;;;;5053008;28;20028;-81
2021/06/21 09:39:45;;;;;;;3.17;1.25;;;24.10;44.50;;;;;;5052924;28;20077;-79
2021/06/21 09:42:19;;;;;;;3.58;0.70;;;24.20;45.10;;;;;;5053181;28;20017;-83
2021/06/21 09:44:54;;;;;;;3.97;1.05;;;24.30;43.30;;;;;;5052611;28;20507;-83
2021/06/21 09:47:31;;;;;;;5.63;0.90;;;24.30;44.00;;;;;;5052440;28;20468;-82
2021/06/21 09:50:12;;;;;;;2.45;0.90;;;24.40;42.70;;;;;;5052733;28;20032;-82
2021/06/21 09:52:44;;;;;;;2.78;1.00;;;24.60;43.50;;;;;;5051411;28;20032;-80
2021/06/21 09:55:10;;;;;;;3.70;1.27;;;24.40;43.20;;;;;;5052611;28;20040;-83
2021/06/21 09:57:38;;;;;;;2.13;1.20;;;24.40;44.10;;;;;;5050383;28;20056;-80
2021/06/21 10:00:12;;;;;;;4.45;1.33;;;24.70;44.80;;;;;;5044237;28;20044;-82
2021/06/21 10:02:38;;;;;;;3.78;1.05;;;24.60;44.80;;;;;;5041125;28;20164;-82
2021/06/21 10:05:16;;;;;;;3.45;0.95;;;24.50;44.30;;;;;;5040741;28;20057;-79
2021/06/21 10:07:42;;;;;;;4.05;1.02;;;24.50;44.60;;;;;;5040419;28;20033;-82
2021/06/21 10:10:15;;;;;;;3.13;1.05;;;24.80;44.00;;;;;;5043608;28;20032;-78
2021/06/21 10:12:41;;;;;;;3.67;0.80;;;25.00;44.40;;;;;;5052795;28;20025;-80
2021/06/21 10:15:09;;;;;;;2.65;1.00;;;25.00;44.60;;;;;;5054574;28;20109;-80
2021/06/21 10:17:35;;;;;;;6.47;1.10;;;25.20;44.30;;;;;;5056531;28;20025;-82
2021/06/21 10:20:00;;;;;;;5.18;1.10;;;25.00;44.50;;;;;;5057470;28;20063;-78
2021/06/21 10:22:27;;;;;;;3.63;1.02;;;24.90;43.90;;;;;;5072665;28;20064;-80
2021/06/21 10:24:56;;;;;;;3.22;0.98;;;24.80;42.40;;;;;;5061979;28;20104;-81
2021/06/21 10:27:24;;;;;;;3.80;1.15;;;24.90;42.80;;;;;;5052515;28;20017;-79
2021/06/21 10:29:50;;;;;;;1.90;0.90;;;25.00;42.30;;;;;;5051857;28;20029;-79
2021/06/21 10:32:17;;;;;;;2.78;1.00;;;25.30;42.60;;;;;;5052659;28;20028;-80
2021/06/21 10:34:46;;;;;;;2.65;1.00;;;25.60;41.40;;;;;;5052859;28;20036;-80
2021/06/21 10:37:14;;;;;;;3.92;1.02;;;25.80;41.90;;;;;;5052999;28;20031;-81
2021/06/21 10:39:48;;;;;;;7.07;1.00;;;25.90;41.40;;;;;;5054405;28;20126;-78
2021/06/21 10:42:16;;;;;;;3.20;1.02;;;26.00;41.60;;;;;;5055614;28;20112;-82
2021/06/21 10:44:47;;;;;;;4.65;1.38;;;26.00;41.50;;;;;;5055212;28;20017;-80
2021/06/21 10:47:38;;;;;;;2.70;1.00;;;26.10;40.90;;;;;;5055509;28;20108;-80
2021/06/21 10:50:15;;;;;;;5.93;1.27;;;26.20;41.40;;;;;;5055398;28;20484;-79
2021/06/21 10:52:48;;;;;;;4.25;1.20;;;26.50;41.30;;;;;;5054812;28;20036;-78
2021/06/21 10:55:26;;;;;;;5.55;0.90;;;26.60;40.60;;;;;;5055280;28;20127;-78
2021/06/21 10:58:02;;;;;;;3.83;0.82;;;26.60;39.70;;;;;;5055112;28;20029;-80
2021/06/21 11:00:43;;;;;;;16.42;11.27;;;26.60;38.40;;;;;;5053568;28;20025;-81
2021/06/21 11:03:32;;;;;;;5.43;1.77;;;26.70;38.10;;;;;;5055156;28;20029;-77
2021/06/21 11:06:04;;;;;;;3.88;1.38;;;26.90;38.90;;;;;;5054755;28;20449;-76
2021/06/21 11:08:54;;;;;;;5.10;1.05;;;27.00;39.20;;;;;;5054719;28;20056;-77
2021/06/21 11:11:35;;;;;;;5.10;1.02;;;26.80;38.70;;;;;;5054784;28;20057;-76
2021/06/21 11:14:10;;;;;;;5.13;0.85;;;26.90;39.30;;;;;;5054968;28;20024;-77
2021/06/21 11:16:39;;;;;;;2.80;1.05;;;27.00;40.50;;;;;;5055023;28;20471;-77
2021/06/21 11:19:13;;;;;;;5.78;1.30;;;27.40;39.90;;;;;;5055019;28;20116;-77
2021/06/21 11:22:01;;;;;;;2.97;0.98;;;27.30;39.20;;;;;;5054973;28;20059;-76
2021/06/21 11:24:36;;;;;;;5.18;1.20;;;27.40;39.80;;;;;;5055059;28;20025;-76
2021/06/21 11:27:03;;;;;;;2.58;0.93;;;27.70;38.10;;;;;;5054947;28;20048;-77
2021/06/21 11:29:34;;;;;;;4.00;1.08;;;27.70;38.10;;;;;;5056016;28;20017;-77
2021/06/21 11:32:05;;;;;;;4.97;1.30;;;27.90;38.00;;;;;;5054860;28;20111;-77
2021/06/21 11:34:46;;;;;;;3.03;0.70;;;27.80;37.60;;;;;;5054824;28;20021;-78
2021/06/21 11:37:41;;;;;;;2.42;0.98;;;27.80;37.10;;;;;;5054787;28;20025;-77
2021/06/21 11:40:12;;;;;;;8.10;0.95;;;28.10;37.00;;;;;;5054529;28;20017;-78
2021/06/21 11:42:43;;;;;;;2.78;0.90;;;27.90;36.40;;;;;;5054534;28;20032;-78
2021/06/21 11:45:09;;;;;;;4.63;0.95;;;27.60;36.50;;;;;;5054440;28;20024;-77
2021/06/21 11:47:37;;;;;;;6.20;1.35;;;27.70;36.10;;;;;;5054104;28;20349;-78
2021/06/21 11:50:18;;;;;;;3.38;0.90;;;27.70;35.70;;;;;;5053719;28;20029;-76
2021/06/21 11:52:47;;;;;;;4.20;1.20;;;27.60;37.10;;;;;;5054171;28;20074;-77
2021/06/21 11:55:15;;;;;;;4.90;1.13;;;27.70;35.30;;;;;;5054275;28;20021;-76
2021/06/21 11:57:43;;;;;;;3.60;1.05;;;27.80;34.80;;;;;;5054318;28;20028;-78
2021/06/21 12:00:09;;;;;;;3.40;0.90;;;27.80;34.40;;;;;;5054272;28;20029;-77
2021/06/21 12:02:35;;;;;;;4.13;0.95;;;27.90;34.70;;;;;;5053135;28;20032;-77
2021/06/21 12:05:08;;;;;;;3.00;0.85;;;28.00;35.80;;;;;;5054315;28;20029;-77
2021/06/21 12:07:43;;;;;;;1.60;0.70;;;28.30;35.10;;;;;;5053814;28;20053;-78
2021/06/21 12:10:17;;;;;;;4.55;1.05;;;28.30;34.90;;;;;;5053803;28;20098;-77
2021/06/21 12:12:48;;;;;;;4.03;0.77;;;28.20;34.00;;;;;;5053389;28;20078;-78
2021/06/21 12:15:27;;;;;;;2.45;0.85;;;28.40;33.20;;;;;;5053762;28;20021;-78
2021/06/21 12:17:54;;;;;;;4.05;0.93;;;28.80;33.80;;;;;;5053867;28;20032;-78
2021/06/21 12:20:19;;;;;;;3.17;0.90;;;28.90;33.00;;;;;;5053730;28;20017;-77
2021/06/21 12:23:07;;;;;;;3.05;1.35;;;29.10;33.00;;;;;;5053847;28;20102;-78
2021/06/21 12:25:38;;;;;;;2.25;0.57;;;29.30;34.00;;;;;;5053793;28;20107;-78
2021/06/21 12:28:23;;;;;;;3.67;1.73;;;29.60;34.20;;;;;;5053599;28;20090;-77
2021/06/21 12:30:55;;;;;;;4.65;3.40;;;30.00;34.90;;;;;;5053574;28;20115;-78
2021/06/21 12:33:30;;;;;;;3.63;0.85;;;30.40;34.90;;;;;;5053646;28;20029;-78
2021/06/21 12:36:14;;;;;;;2.67;0.95;;;30.60;33.00;;;;;;5053689;28;20473;-77
2021/06/21 12:39:02;;;;;;;2.35;0.80;;;30.70;30.30;;;;;;5053689;28;20079;-78
2021/06/21 12:41:33;;;;;;;2.83;0.73;;;30.40;30.10;;;;;;5053394;28;20053;-78
2021/06/21 12:44:09;;;;;;;2.13;0.73;;;30.20;30.80;;;;;;5053305;28;20036;-78
2021/06/21 12:46:36;;;;;;;3.50;0.80;;;30.30;30.50;;;;;;5053362;28;20025;-77
2021/06/21 12:49:10;;;;;;;5.35;0.85;;;30.40;29.10;;;;;;5051961;28;20037;-78
2021/06/21 12:51:37;;;;;;;3.92;0.38;;;30.40;29.30;;;;;;5053209;28;20116;-78
2021/06/21 12:54:03;;;;;;;5.47;1.02;;;30.50;28.40;;;;;;5053154;28;20031;-78
2021/06/21 12:56:35;;;;;;;2.03;0.55;;;30.70;28.20;;;;;;5053074;28;20373;-78
2021/06/21 12:59:02;;;;;;;1.73;0.57;;;30.70;29.00;;;;;;5053239;28;20071;-77
2021/06/21 13:01:35;;;;;;;2.10;1.05;;;30.70;28.70;;;;;;5052822;28;20416;-77
2021/06/21 13:04:14;;;;;;;2.28;0.82;;;31.10;29.70;;;;;;5053129;28;20025;-77
2021/06/21 13:06:41;;;;;;;4.72;1.08;;;31.10;29.40;;;;;;5052175;28;20020;-84
2021/06/21 13:09:12;;;;;;;2.80;0.80;;;30.40;30.00;;;;;;5052693;28;20052;-77
2021/06/21 13:12:02;;;;;;;2.22;0.60;;;30.20;30.60;;;;;;5052958;28;20045;-78
2021/06/21 13:14:33;;;;;;;2.05;0.82;;;29.80;30.30;;;;;;5052723;28;20086;-78
2021/06/21 13:17:10;;;;;;;5.03;1.00;;;29.90;31.30;;;;;;5052786;28;20025;-78
2021/06/21 13:19:45;;;;;;;2.72;0.95;;;30.00;31.30;;;;;;5052813;28;20056;-77